Time,TemperatureF,DewpointF,PressureIn,WindDirection,WindDirectionDegrees,WindSpeedMPH,WindSpeedGustMPH,Humidity,HourlyPrecipIn,Conditions,Clouds,dailyrainin,SolarRadiationWatts/m^2,SoftwareType,DateUTC
2013-05-29 00:01:00,63.9,60.0,30.16,SE,126,0.0,0.0,87,0.00,CLR,,0.00,0.0,WeatherDisplay:10.37,2013-05-29 04:01:00,
2013-05-29 00:06:00,64.4,60.1,30.16,SE,126,0.0,0.0,86,0.00,CLR,,0.00,0.0,WeatherDisplay:10.37,2013-05-29 04:06:00,
2013-05-29 00:11:00,64.8,60.2,30.16,SE,126,0.0,0.0,85,0.00,CLR,,0.00,0.0,WeatherDisplay:10.37,2013-05-29 04:11:00,
2013-05-29 00:16:00,64.9,60.3,30.15,SE,126,0.0,0.0,85,0.00,CLR,,0.00,0.0,WeatherDisplay:10.37,2013-05-29 04:16:00,
2013-05-29 00:21:00,64.8,60.2,30.15,SE,126,0.0,0.0,85,0.00,CLR,,0.00,0.0,WeatherDisplay:10.37,2013-05-29 04:21:00,
2013-05-29 00:26:00,64.6,60.3,30.15,SE,126,1.2,1.2,86,0.00,CLR,,0.00,0.0,WeatherDisplay:10.37,2013-05-29 04:26:00,
2013-05-29 00:31:00,64.5,60.2,30.15,SE,126,0.0,0.0,86,0.00,CLR,,0.00,0.0,WeatherDisplay:10.37,2013-05-29 04:31:00,
2013-05-29 00:36:00,64.5,60.2,30.15,SE,126,0.0,0.0,86,0.00,CLR,,0.00,0.0,WeatherDisplay:10.37,2013-05-29 04:36:00,
2013-05-29 00:41:00,64.4,60.1,30.15,SE,126,0.0,0.0,86,0.00,CLR,,0.00,0.0,WeatherDisplay:10.37,2013-05-29 04:41:00,
2013-05-29 00:46:00,64.2,60.2,30.15,SE,126,1.2,0.0,87,0.00,CLR,,0.00,0.0,WeatherDisplay:10.37,2013-05-29 04:46:00,
2013-05-29 00:51:00,64.0,60.1,30.15,SE,126,0.0,0.0,87,0.00,CLR,,0.00,0.0,WeatherDisplay:10.37,2013-05-29 04:51:00,
2013-05-29 00:57:00,63.9,60.0,30.15,SE,126,0.0,0.0,87,0.00,CLR,,0.00,0.0,WeatherDisplay:10.37,2013-05-29 04:57:00,
2013-05-29 01:02:00,63.8,59.9,30.15,SE,126,0.0,0.0,87,0.00,CLR,,0.00,0.0,WeatherDisplay:10.37,2013-05-29 05:02:00,
2013-05-29 01:07:00,63.8,60.2,30.15,SE,126,1.2,0.0,88,0.00,CLR,,0.00,0.0,WeatherDisplay:10.37,2013-05-29 05:07:00,
2013-05-29 01:12:00,63.6,60.0,30.15,SE,126,0.0,0.0,88,0.00,CLR,,0.00,0.0,WeatherDisplay:10.37,2013-05-29 05:12:00,
2013-05-29 01:17:00,63.3,59.7,30.15,SE,126,0.0,0.0,88,0.00,CLR,,0.00,0.0,WeatherDisplay:10.37,2013-05-29 05:17:00,
2013-05-29 01:22:00,63.1,59.8,30.15,SE,126,0.0,0.0,89,0.00,CLR,,0.00,0.0,WeatherDisplay:10.37,2013-05-29 05:22:00,
2013-05-29 01:27:00,63.0,60.0,30.15,SE,126,3.5,3.5,90,0.00,CLR,,0.00,0.0,WeatherDisplay:10.37,2013-05-29 05:27:00,
2013-05-29 01:32:00,63.0,60.0,30.15,SE,126,1.2,0.0,90,0.00,CLR,,0.00,0.0,WeatherDisplay:10.37,2013-05-29 05:32:00,
2013-05-29 01:37:00,62.9,59.9,30.15,ESE,123,3.5,0.0,90,0.00,CLR,,0.00,0.0,WeatherDisplay:10.37,2013-05-29 05:37:00,
2013-05-29 01:42:00,62.6,59.6,30.15,ESE,122,5.8,5.8,90,0.00,CLR,,0.00,0.0,WeatherDisplay:10.37,2013-05-29 05:42:00,
2013-05-29 01:47:00,62.3,59.3,30.14,ESE,122,4.6,4.6,90,0.00,CLR,,0.00,0.0,WeatherDisplay:10.37,2013-05-29 05:47:00,
2013-05-29 01:52:00,62.2,59.5,30.15,ESE,121,3.5,3.5,91,0.00,CLR,,0.00,0.0,WeatherDisplay:10.37,2013-05-29 05:52:00,
2013-05-29 01:57:00,62.2,59.5,30.15,ESE,121,2.3,2.3,91,0.00,CLR,,0.00,0.0,WeatherDisplay:10.37,2013-05-29 05:57:00,
2013-05-29 02:02:00,62.3,59.9,30.15,ESE,121,0.0,0.0,92,0.00,CLR,,0.00,0.0,WeatherDisplay:10.37,2013-05-29 06:02:00,
2013-05-29 02:07:00,62.4,60.0,30.15,ESE,121,0.0,0.0,92,0.00,CLR,,0.00,0.0,WeatherDisplay:10.37,2013-05-29 06:07:00,
2013-05-29 02:12:00,62.4,60.0,30.15,ESE,121,0.0,0.0,92,0.00,CLR,,0.00,0.0,WeatherDisplay:10.37,2013-05-29 06:12:00,
2013-05-29 02:17:00,62.5,59.8,30.15,ESE,121,0.0,0.0,91,0.00,CLR,,0.00,0.0,WeatherDisplay:10.37,2013-05-29 06:17:00,
2013-05-29 02:22:00,62.5,59.8,30.15,ESE,121,0.0,0.0,91,0.00,CLR,,0.00,0.0,WeatherDisplay:10.37,2013-05-29 06:22:00,
2013-05-29 02:27:00,62.5,59.8,30.15,ESE,121,0.0,0.0,91,0.00,CLR,,0.00,0.0,WeatherDisplay:10.37,2013-05-29 06:27:00,
2013-05-29 02:32:00,62.5,59.8,30.15,ESE,121,3.5,3.5,91,0.00,CLR,,0.00,0.0,WeatherDisplay:10.37,2013-05-29 06:32:00,
2013-05-29 02:37:00,62.6,60.2,30.16,ESE,121,0.0,0.0,92,0.00,CLR,,0.00,0.0,WeatherDisplay:10.37,2013-05-29 06:37:00,
2013-05-29 02:42:00,62.7,60.3,30.15,ESE,122,0.0,0.0,92,0.00,CLR,,0.00,0.0,WeatherDisplay:10.37,2013-05-29 06:42:00,
2013-05-29 02:47:00,62.8,60.4,30.16,ESE,121,0.0,0.0,92,0.00,CLR,,0.00,0.0,WeatherDisplay:10.37,2013-05-29 06:47:00,
2013-05-29 02:52:00,63.0,60.3,30.16,ESE,121,0.0,0.0,91,0.00,CLR,,0.00,0.0,WeatherDisplay:10.37,2013-05-29 06:52:00,
2013-05-29 02:57:00,63.2,60.5,30.16,ESE,121,2.3,2.3,91,0.00,CLR,,0.00,0.0,WeatherDisplay:10.37,2013-05-29 06:57:00,
2013-05-29 03:02:00,63.2,60.5,30.16,ESE,121,0.0,0.0,91,0.00,CLR,,0.00,0.0,WeatherDisplay:10.37,2013-05-29 07:02:00,
2013-05-29 03:07:00,63.3,60.6,30.16,ESE,121,0.0,0.0,91,0.00,CLR,,0.00,0.0,WeatherDisplay:10.37,2013-05-29 07:07:00,
2013-05-29 03:12:00,63.4,60.7,30.16,ESE,121,2.3,2.3,91,0.00,CLR,,0.00,0.0,WeatherDisplay:10.37,2013-05-29 07:12:00,
2013-05-29 03:17:00,63.6,60.6,30.16,ESE,121,0.0,0.0,90,0.00,CLR,,0.00,0.0,WeatherDisplay:10.37,2013-05-29 07:17:00,
2013-05-29 03:22:00,63.8,60.8,30.16,ESE,117,0.0,0.0,90,0.00,CLR,,0.00,0.0,WeatherDisplay:10.37,2013-05-29 07:22:00,
2013-05-29 03:27:00,63.8,60.8,30.16,ESE,117,3.5,3.5,90,0.00,CLR,,0.00,0.0,WeatherDisplay:10.37,2013-05-29 07:27:00,
2013-05-29 03:33:00,63.9,60.6,30.17,ESE,117,3.5,0.0,89,0.00,CLR,,0.00,0.0,WeatherDisplay:10.37,2013-05-29 07:33:00,
2013-05-29 03:38:00,63.9,60.6,30.17,ESE,116,3.5,3.5,89,0.00,CLR,,0.00,0.0,WeatherDisplay:10.37,2013-05-29 07:38:00,
2013-05-29 03:43:00,64.0,60.7,30.17,ESE,116,0.0,0.1,89,0.00,CLR,,0.00,0.0,WeatherDisplay:10.37,2013-05-29 07:43:00,
2013-05-29 03:48:00,64.1,60.8,30.17,ESE,116,3.5,3.5,89,0.00,CLR,,0.00,0.0,WeatherDisplay:10.37,2013-05-29 07:48:00,
2013-05-29 03:53:00,64.2,60.9,30.17,ESE,111,3.5,3.5,89,0.00,CLR,,0.00,0.0,WeatherDisplay:10.37,2013-05-29 07:53:00,
2013-05-29 03:58:00,64.2,60.9,30.17,ESE,111,0.0,0.0,89,0.00,CLR,,0.00,0.0,WeatherDisplay:10.37,2013-05-29 07:58:00,
2013-05-29 04:03:00,64.3,61.0,30.17,ESE,111,0.0,0.0,89,0.00,CLR,,0.00,0.0,WeatherDisplay:10.37,2013-05-29 08:03:00,
2013-05-29 04:08:00,64.4,61.1,30.17,ESE,111,0.0,0.0,89,0.00,CLR,,0.00,0.0,WeatherDisplay:10.37,2013-05-29 08:08:00,
2013-05-29 04:13:00,64.4,61.1,30.17,ESE,111,0.0,0.0,89,0.00,CLR,,0.00,0.0,WeatherDisplay:10.37,2013-05-29 08:13:00,
2013-05-29 04:18:00,64.4,61.1,30.18,ESE,111,0.0,0.0,89,0.00,CLR,,0.00,0.0,WeatherDisplay:10.37,2013-05-29 08:18:00,
2013-05-29 04:23:00,64.4,61.1,30.18,East,88,5.8,5.8,89,0.00,CLR,,0.00,0.0,WeatherDisplay:10.37,2013-05-29 08:23:00,
2013-05-29 04:28:00,64.4,61.1,30.18,East,88,0.0,0.0,89,0.00,CLR,,0.00,0.0,WeatherDisplay:10.37,2013-05-29 08:28:00,
2013-05-29 04:33:00,64.4,61.1,30.18,East,88,0.0,0.0,89,0.00,CLR,,0.00,0.0,WeatherDisplay:10.37,2013-05-29 08:33:00,
2013-05-29 04:38:00,64.4,60.8,30.18,East,88,0.0,0.0,88,0.00,CLR,,0.00,0.0,WeatherDisplay:10.37,2013-05-29 08:38:00,
2013-05-29 04:43:00,64.3,60.7,30.18,East,88,0.0,0.0,88,0.00,CLR,,0.00,0.0,WeatherDisplay:10.37,2013-05-29 08:43:00,
2013-05-29 04:48:00,64.4,61.1,30.18,East,88,0.0,0.0,89,0.00,CLR,,0.00,0.0,WeatherDisplay:10.37,2013-05-29 08:48:00,
2013-05-29 04:53:00,64.3,60.7,30.18,East,88,0.0,0.0,88,0.00,CLR,,0.00,0.0,WeatherDisplay:10.37,2013-05-29 08:53:00,
2013-05-29 04:58:00,64.3,60.7,30.18,East,88,0.0,0.0,88,0.00,CLR,,0.00,0.0,WeatherDisplay:10.37,2013-05-29 08:58:00,
2013-05-29 05:03:00,64.2,60.6,30.18,East,88,0.0,0.0,88,0.00,CLR,,0.00,0.0,WeatherDisplay:10.37,2013-05-29 09:03:00,
2013-05-29 05:08:00,64.1,60.8,30.18,East,88,3.0,3.0,89,0.00,CLR,,0.00,0.0,WeatherDisplay:10.37,2013-05-29 09:08:00,
2013-05-29 05:13:00,64.0,60.7,30.18,East,88,4.6,4.6,89,0.00,CLR,,0.00,0.0,WeatherDisplay:10.37,2013-05-29 09:13:00,
2013-05-29 05:18:00,63.8,60.5,30.18,East,88,0.0,0.0,89,0.00,CLR,,0.00,0.0,WeatherDisplay:10.37,2013-05-29 09:18:00,
2013-05-29 05:23:00,63.7,60.4,30.18,East,88,3.5,0.0,89,0.00,CLR,,0.00,0.0,WeatherDisplay:10.37,2013-05-29 09:23:00,
2013-05-29 05:28:00,63.5,60.2,30.18,East,88,0.0,0.7,89,0.00,CLR,,0.00,0.0,WeatherDisplay:10.37,2013-05-29 09:28:00,
2013-05-29 05:33:00,63.3,60.3,30.18,East,88,0.0,0.0,90,0.00,CLR,,0.00,0.0,WeatherDisplay:10.37,2013-05-29 09:33:00,
2013-05-29 05:38:00,63.1,60.1,30.18,East,88,0.0,0.0,90,0.00,CLR,,0.00,0.0,WeatherDisplay:10.37,2013-05-29 09:38:00,
2013-05-29 05:43:00,63.0,60.0,30.18,East,88,0.0,0.0,90,0.00,CLR,,0.00,0.0,WeatherDisplay:10.37,2013-05-29 09:43:00,
2013-05-29 05:48:00,62.8,59.8,30.18,East,88,0.0,0.0,90,0.00,CLR,,0.00,0.0,WeatherDisplay:10.37,2013-05-29 09:48:00,
2013-05-29 05:53:00,62.6,59.6,30.19,East,88,3.5,3.5,90,0.00,CLR,,0.00,0.0,WeatherDisplay:10.37,2013-05-29 09:53:00,
2013-05-29 05:58:00,62.5,59.8,30.19,East,88,4.6,4.6,91,0.00,CLR,,0.00,0.0,WeatherDisplay:10.37,2013-05-29 09:58:00,
2013-05-29 06:03:00,62.5,59.8,30.19,East,88,3.0,3.0,91,0.00,CLR,,0.00,0.0,WeatherDisplay:10.37,2013-05-29 10:03:00,
2013-05-29 06:08:00,62.3,59.6,30.19,East,88,0.0,0.0,91,0.00,CLR,,0.00,0.0,WeatherDisplay:10.37,2013-05-29 10:08:00,
2013-05-29 06:13:00,62.2,59.5,30.19,East,88,3.5,3.5,91,0.00,CLR,,0.00,0.0,WeatherDisplay:10.37,2013-05-29 10:13:00,
2013-05-29 06:18:00,62.1,59.4,30.19,East,88,4.0,4.0,91,0.00,CLR,,0.00,0.0,WeatherDisplay:10.37,2013-05-29 10:18:00,
2013-05-29 06:23:00,62.0,59.6,30.20,East,88,3.5,3.5,92,0.00,CLR,,0.00,0.0,WeatherDisplay:10.37,2013-05-29 10:23:00,
2013-05-29 06:28:00,62.0,59.6,30.20,East,88,3.5,3.5,92,0.00,CLR,,0.00,5.0,WeatherDisplay:10.37,2013-05-29 10:28:00,
2013-05-29 06:33:00,61.9,59.5,30.20,East,88,0.0,0.0,92,0.00,CLR,,0.00,9.0,WeatherDisplay:10.37,2013-05-29 10:33:00,
2013-05-29 06:39:00,61.9,59.5,30.20,East,88,0.0,0.0,92,0.00,CLR,,0.00,12.0,WeatherDisplay:10.37,2013-05-29 10:39:00,
2013-05-29 06:44:00,61.9,59.5,30.20,East,88,3.5,3.5,92,0.00,CLR,,0.00,12.0,WeatherDisplay:10.37,2013-05-29 10:44:00,
2013-05-29 06:49:00,61.9,59.5,30.20,East,88,3.5,3.5,92,0.00,CLR,,0.00,14.0,WeatherDisplay:10.37,2013-05-29 10:49:00,
2013-05-29 06:54:00,61.9,59.5,30.19,East,88,3.0,3.0,92,0.00,CLR,,0.00,18.0,WeatherDisplay:10.37,2013-05-29 10:54:00,
2013-05-29 06:59:00,61.9,59.5,30.20,East,88,0.0,0.0,92,0.00,CLR,,0.00,19.0,WeatherDisplay:10.37,2013-05-29 10:59:00,
2013-05-29 07:04:00,61.9,59.5,30.20,East,88,3.5,3.5,92,0.00,CLR,,0.00,21.0,WeatherDisplay:10.37,2013-05-29 11:04:00,
2013-05-29 07:09:00,61.8,59.5,30.20,East,88,0.0,0.0,92,0.00,CLR,,0.00,25.0,WeatherDisplay:10.37,2013-05-29 11:09:00,
2013-05-29 07:14:00,61.8,59.5,30.20,East,88,4.6,4.6,92,0.00,CLR,,0.00,26.0,WeatherDisplay:10.37,2013-05-29 11:14:00,
2013-05-29 07:19:00,61.8,59.8,30.20,East,88,4.0,4.0,93,0.00,CLR,,0.00,28.0,WeatherDisplay:10.37,2013-05-29 11:19:00,
2013-05-29 07:24:00,61.8,59.8,30.20,East,88,2.0,2.0,93,0.00,CLR,,0.00,30.0,WeatherDisplay:10.37,2013-05-29 11:24:00,
2013-05-29 07:29:00,61.8,59.8,30.21,East,88,0.0,0.0,93,0.00,CLR,,0.00,33.0,WeatherDisplay:10.37,2013-05-29 11:29:00,
2013-05-29 07:34:00,61.8,59.8,30.21,East,88,3.5,3.5,93,0.00,CLR,,0.00,35.0,WeatherDisplay:10.37,2013-05-29 11:34:00,
2013-05-29 07:39:00,61.9,59.9,30.21,East,88,3.5,3.5,93,0.00,CLR,,0.00,37.0,WeatherDisplay:10.37,2013-05-29 11:39:00,
2013-05-29 07:44:00,62.0,60.0,30.21,East,88,3.0,3.0,93,0.00,CLR,,0.00,125.0,WeatherDisplay:10.37,2013-05-29 11:44:00,
2013-05-29 07:49:00,62.2,60.2,30.21,East,88,0.0,0.0,93,0.00,CLR,,0.00,171.0,WeatherDisplay:10.37,2013-05-29 11:49:00,
2013-05-29 07:54:00,62.5,60.4,30.21,East,88,4.0,4.0,93,0.00,CLR,,0.00,185.0,WeatherDisplay:10.37,2013-05-29 11:54:00,
2013-05-29 07:59:00,62.9,60.8,30.21,East,88,6.0,6.0,93,0.00,CLR,,0.00,204.0,WeatherDisplay:10.37,2013-05-29 11:59:00,
2013-05-29 08:04:00,63.4,61.3,30.21,East,88,5.8,5.8,93,0.00,OVC,,0.00,213.0,WeatherDisplay:10.37,2013-05-29 12:04:00,
2013-05-29 08:09:00,63.9,61.2,30.21,East,88,5.8,5.8,91,0.00,OVC,,0.00,132.0,WeatherDisplay:10.37,2013-05-29 12:09:00,
2013-05-29 08:14:00,64.3,61.3,30.21,East,88,0.0,0.0,90,0.00,OVC,,0.00,134.0,WeatherDisplay:10.37,2013-05-29 12:14:00,
2013-05-29 08:19:00,64.6,61.3,30.21,East,82,5.0,5.0,89,0.00,OVC,,0.00,246.0,WeatherDisplay:10.37,2013-05-29 12:19:00,
2013-05-29 08:24:00,65.0,62.0,30.21,East,82,2.3,2.3,90,0.00,OVC,,0.00,207.0,WeatherDisplay:10.37,2013-05-29 12:24:00,
2013-05-29 08:29:00,65.4,62.1,30.22,East,82,0.0,0.0,89,0.00,OVC,,0.00,200.0,WeatherDisplay:10.37,2013-05-29 12:29:00,
2013-05-29 08:34:00,65.7,62.0,30.22,East,82,5.8,5.8,88,0.00,OVC,,0.00,207.0,WeatherDisplay:10.37,2013-05-29 12:34:00,
2013-05-29 08:39:00,66.0,62.3,30.22,East,82,0.0,0.0,88,0.00,OVC,,0.00,206.0,WeatherDisplay:10.37,2013-05-29 12:39:00,
2013-05-29 08:44:00,66.2,62.2,30.22,East,82,4.6,4.6,87,0.00,OVC,,0.00,207.0,WeatherDisplay:10.37,2013-05-29 12:44:00,
2013-05-29 08:49:00,66.5,61.8,30.22,East,82,4.6,4.6,85,0.00,OVC,,0.00,227.0,WeatherDisplay:10.37,2013-05-29 12:49:00,
2013-05-29 08:54:00,66.7,62.7,30.22,East,82,4.6,4.6,87,0.00,OVC,,0.00,246.0,WeatherDisplay:10.37,2013-05-29 12:54:00,
2013-05-29 08:59:00,66.9,62.6,30.22,East,83,6.9,6.9,86,0.00,OVC,,0.00,241.0,WeatherDisplay:10.37,2013-05-29 12:59:00,
2013-05-29 09:04:00,66.9,62.2,30.22,East,84,0.0,0.0,85,0.00,OVC,,0.00,229.0,WeatherDisplay:10.37,2013-05-29 13:04:00,
2013-05-29 09:09:00,67.0,62.7,30.22,East,84,0.0,0.0,86,0.00,OVC,,0.00,156.0,WeatherDisplay:10.37,2013-05-29 13:09:00,
2013-05-29 09:14:00,67.1,62.8,30.23,East,84,3.5,3.5,86,0.00,OVC,,0.00,236.0,WeatherDisplay:10.37,2013-05-29 13:14:00,
2013-05-29 09:19:00,67.2,62.5,30.23,East,84,0.0,0.0,85,0.00,OVC,,0.00,246.0,WeatherDisplay:10.37,2013-05-29 13:19:00,
2013-05-29 09:24:00,67.2,62.2,30.23,East,84,0.0,0.0,84,0.00,OVC,,0.00,209.0,WeatherDisplay:10.37,2013-05-29 13:24:00,
2013-05-29 09:29:00,67.2,62.2,30.23,East,84,0.0,0.0,84,0.00,OVC,,0.00,230.0,WeatherDisplay:10.37,2013-05-29 13:29:00,
2013-05-29 09:34:00,67.2,62.2,30.23,East,88,4.6,4.6,84,0.00,OVC,,0.00,283.0,WeatherDisplay:10.37,2013-05-29 13:34:00,
2013-05-29 09:39:00,67.3,62.3,30.23,East,88,0.0,0.0,84,0.00,OVC,,0.00,283.0,WeatherDisplay:10.37,2013-05-29 13:39:00,
2013-05-29 09:44:00,67.3,62.3,30.23,East,88,0.0,0.0,84,0.00,OVC,,0.00,279.0,WeatherDisplay:10.37,2013-05-29 13:44:00,
2013-05-29 09:49:00,67.3,62.6,30.23,East,88,3.5,3.5,85,0.00,OVC,,0.00,339.0,WeatherDisplay:10.37,2013-05-29 13:49:00,
2013-05-29 09:54:00,67.4,63.1,30.23,East,88,0.0,0.0,86,0.00,OVC,,0.00,241.0,WeatherDisplay:10.37,2013-05-29 13:54:00,
2013-05-29 09:59:00,67.7,63.0,30.23,East,88,3.5,3.5,85,0.00,OVC,,0.00,265.0,WeatherDisplay:10.37,2013-05-29 13:59:00,
2013-05-29 10:04:00,67.8,63.1,30.23,East,88,0.0,0.0,85,0.00,OVC,,0.00,330.0,WeatherDisplay:10.37,2013-05-29 14:04:00,
2013-05-29 10:09:00,67.9,62.5,30.23,East,88,3.5,3.5,83,0.00,OVC,,0.00,197.0,WeatherDisplay:10.37,2013-05-29 14:09:00,
2013-05-29 10:14:00,67.9,63.2,30.23,East,88,0.0,0.0,85,0.00,OVC,,0.00,325.0,WeatherDisplay:10.37,2013-05-29 14:14:00,
2013-05-29 10:19:00,67.9,62.5,30.23,East,88,4.6,4.6,83,0.00,OVC,,0.00,272.0,WeatherDisplay:10.37,2013-05-29 14:19:00,
2013-05-29 10:24:00,67.9,62.5,30.23,East,88,0.0,0.0,83,0.00,OVC,,0.00,330.0,WeatherDisplay:10.37,2013-05-29 14:24:00,
2013-05-29 10:29:00,68.0,62.6,30.23,East,88,3.5,3.6,83,0.00,OVC,,0.00,582.0,WeatherDisplay:10.37,2013-05-29 14:29:00,
2013-05-29 10:34:00,68.1,62.7,30.23,East,88,0.0,0.0,83,0.00,OVC,,0.00,223.0,WeatherDisplay:10.37,2013-05-29 14:34:00,
2013-05-29 10:39:00,68.4,63.4,30.23,East,88,0.0,0.0,84,0.00,OVC,,0.00,367.0,WeatherDisplay:10.37,2013-05-29 14:39:00,
2013-05-29 10:44:00,69.0,65.0,30.23,East,89,2.3,0.0,87,0.00,OVC,,0.00,684.0,WeatherDisplay:10.37,2013-05-29 14:44:00,
2013-05-29 10:49:00,69.6,63.9,30.23,East,86,5.8,5.8,82,0.00,OVC,,0.00,613.0,WeatherDisplay:10.37,2013-05-29 14:49:00,
2013-05-29 10:54:00,69.5,63.4,30.23,East,86,3.5,3.5,81,0.00,OVC,,0.00,712.0,WeatherDisplay:10.37,2013-05-29 14:54:00,
2013-05-29 10:59:00,69.7,64.3,30.23,East,86,0.0,0.0,83,0.00,OVC,,0.00,837.0,WeatherDisplay:10.37,2013-05-29 14:59:00,
2013-05-29 11:04:00,70.2,64.4,30.23,East,92,1.2,0.0,82,0.00,OVC,,0.00,842.0,WeatherDisplay:10.37,2013-05-29 15:04:00,
2013-05-29 11:09:00,70.6,63.8,30.23,ESE,102,6.9,6.9,79,0.00,OVC,,0.00,809.0,WeatherDisplay:10.37,2013-05-29 15:09:00,
2013-05-29 11:14:00,70.7,64.6,30.23,ESE,103,5.0,5.0,81,0.00,OVC,,0.00,809.0,WeatherDisplay:10.37,2013-05-29 15:14:00,
2013-05-29 11:19:00,70.8,64.3,30.23,ESE,104,6.9,6.9,80,0.00,OVC,,0.00,471.0,WeatherDisplay:10.37,2013-05-29 15:19:00,
2013-05-29 11:24:00,70.8,65.4,30.23,ESE,107,4.6,4.6,83,0.00,OVC,,0.00,679.0,WeatherDisplay:10.37,2013-05-29 15:24:00,
2013-05-29 11:29:00,70.8,65.4,30.23,ESE,107,0.0,0.0,83,0.00,CLR,,0.00,838.0,WeatherDisplay:10.37,2013-05-29 15:29:00,
2013-05-29 11:34:00,71.1,64.6,30.23,ESE,107,5.0,5.0,80,0.00,CLR,,0.00,279.0,WeatherDisplay:10.37,2013-05-29 15:34:00,
2013-05-29 11:39:00,71.3,64.8,30.23,ESE,105,4.0,4.0,80,0.00,CLR,,0.00,399.0,WeatherDisplay:10.37,2013-05-29 15:39:00,
2013-05-29 11:44:00,71.5,65.0,30.23,East,100,6.0,6.0,80,0.00,CLR,,0.00,457.0,WeatherDisplay:10.37,2013-05-29 15:44:00,
2013-05-29 11:49:00,71.6,65.5,30.23,East,99,5.0,5.0,81,0.00,CLR,,0.00,1069.0,WeatherDisplay:10.37,2013-05-29 15:49:00,
2013-05-29 11:54:00,71.9,64.7,30.23,East,101,3.5,0.0,78,0.00,CLR,,0.00,909.0,WeatherDisplay:10.37,2013-05-29 15:54:00,
2013-05-29 11:59:00,72.4,65.5,30.23,SE,146,11.5,11.5,79,0.00,CLR,,0.00,1044.0,WeatherDisplay:10.37,2013-05-29 15:59:00,
2013-05-29 12:04:00,72.4,65.9,30.24,South,179,11.5,11.5,80,0.00,CLR,,0.00,636.0,WeatherDisplay:10.37,2013-05-29 16:04:00,
2013-05-29 12:09:00,72.4,65.5,30.23,SSE,161,9.2,9.2,79,0.00,CLR,,0.00,896.0,WeatherDisplay:10.37,2013-05-29 16:09:00,
2013-05-29 12:14:00,72.6,65.3,30.23,ESE,120,5.8,5.8,78,0.00,CLR,,0.00,1109.0,WeatherDisplay:10.37,2013-05-29 16:14:00,
2013-05-29 12:19:00,72.8,65.5,30.23,ESE,117,4.6,4.6,78,0.00,CLR,,0.00,677.0,WeatherDisplay:10.37,2013-05-29 16:19:00,
2013-05-29 12:24:00,73.0,65.7,30.23,SSE,150,6.9,6.9,78,0.00,CLR,,0.00,983.0,WeatherDisplay:10.37,2013-05-29 16:24:00,
2013-05-29 12:29:00,73.0,65.0,30.23,SE,139,3.5,0.0,76,0.00,CLR,,0.00,904.0,WeatherDisplay:10.37,2013-05-29 16:29:00,
2013-05-29 12:34:00,73.3,66.4,30.23,SE,131,4.0,4.0,79,0.00,CLR,,0.00,1005.0,WeatherDisplay:10.37,2013-05-29 16:34:00,
2013-05-29 12:39:00,73.4,65.7,30.23,SE,130,0.0,0.0,77,0.00,CLR,,0.00,468.0,WeatherDisplay:10.37,2013-05-29 16:39:00,
2013-05-29 12:44:00,73.4,65.0,30.23,ESE,117,10.4,10.4,75,0.00,CLR,,0.00,970.0,WeatherDisplay:10.37,2013-05-29 16:44:00,
2013-05-29 12:49:00,73.3,64.9,30.23,SE,126,6.9,6.9,75,0.00,CLR,,0.00,977.0,WeatherDisplay:10.37,2013-05-29 16:49:00,
2013-05-29 12:54:00,73.2,66.7,30.23,East,92,4.0,4.0,80,0.00,CLR,,0.00,1002.0,WeatherDisplay:10.37,2013-05-29 16:54:00,
2013-05-29 12:59:00,73.5,66.2,30.23,East,84,10.4,10.4,78,0.00,CLR,,0.00,810.0,WeatherDisplay:10.37,2013-05-29 16:59:00,
2013-05-29 13:04:00,74.0,66.7,30.23,East,93,5.8,5.8,78,0.00,CLR,,0.00,1062.0,WeatherDisplay:10.37,2013-05-29 17:04:00,
2013-05-29 13:09:00,74.4,65.6,30.23,East,94,3.0,3.0,74,0.00,CLR,,0.00,1063.0,WeatherDisplay:10.37,2013-05-29 17:09:00,
2013-05-29 13:14:00,74.7,66.6,30.23,ENE,75,4.6,4.6,76,0.00,CLR,,0.00,396.0,WeatherDisplay:10.37,2013-05-29 17:14:00,
2013-05-29 13:19:00,74.9,67.6,30.22,SE,136,8.1,8.1,78,0.00,CLR,,0.00,1051.0,WeatherDisplay:10.37,2013-05-29 17:19:00,
2013-05-29 13:25:00,75.3,67.6,30.22,SE,134,5.8,5.8,77,0.00,CLR,,0.00,874.0,WeatherDisplay:10.37,2013-05-29 17:25:00,
2013-05-29 13:30:00,75.8,67.7,30.21,SE,134,0.0,0.2,76,0.00,CLR,,0.00,953.0,WeatherDisplay:10.37,2013-05-29 17:30:00,
2013-05-29 13:35:00,75.9,66.6,30.21,East,98,9.0,9.0,73,0.00,CLR,,0.00,1239.0,WeatherDisplay:10.37,2013-05-29 17:35:00,
2013-05-29 13:40:00,76.0,67.9,30.21,East,98,2.3,0.0,76,0.00,CLR,,0.00,436.0,WeatherDisplay:10.37,2013-05-29 17:40:00,
2013-05-29 13:45:00,75.8,67.3,30.21,SSW,196,3.5,0.0,75,0.00,CLR,,0.00,1139.0,WeatherDisplay:10.37,2013-05-29 17:45:00,
2013-05-29 13:50:00,75.9,67.0,30.21,SE,142,6.9,0.0,74,0.00,CLR,,0.00,1172.0,WeatherDisplay:10.37,2013-05-29 17:50:00,
2013-05-29 13:55:00,76.1,66.0,30.21,SE,141,4.6,4.6,71,0.00,BKN,,0.00,214.0,WeatherDisplay:10.37,2013-05-29 17:55:00,
2013-05-29 14:00:00,76.4,66.7,30.21,East,89,11.5,11.5,72,0.00,CLR,,0.00,1141.0,WeatherDisplay:10.37,2013-05-29 18:00:00,
2013-05-29 14:05:00,76.7,66.6,30.21,SSE,163,3.5,3.5,71,0.00,CLR,,0.00,1104.0,WeatherDisplay:10.37,2013-05-29 18:05:00,
2013-05-29 14:10:00,77.0,67.7,30.20,SE,126,2.3,0.0,73,0.00,CLR,,0.00,1102.0,WeatherDisplay:10.37,2013-05-29 18:10:00,
2013-05-29 14:15:00,77.4,67.3,30.19,SSE,152,8.0,8.0,71,0.00,CLR,,0.00,1100.0,WeatherDisplay:10.37,2013-05-29 18:15:00,
2013-05-29 14:20:00,77.5,65.7,30.20,ESE,113,1.2,1.2,67,0.00,CLR,,0.00,1097.0,WeatherDisplay:10.37,2013-05-29 18:20:00,
2013-05-29 14:25:00,77.6,67.4,30.20,ESE,108,5.8,5.8,71,0.00,CLR,,0.00,1060.0,WeatherDisplay:10.37,2013-05-29 18:25:00,
2013-05-29 14:30:00,77.7,67.1,30.19,SSE,148,5.8,5.8,70,0.00,CLR,,0.00,1044.0,WeatherDisplay:10.37,2013-05-29 18:30:00,
2013-05-29 14:35:00,78.0,66.2,30.19,ESE,120,7.0,7.0,67,0.00,CLR,,0.00,1042.0,WeatherDisplay:10.37,2013-05-29 18:35:00,
2013-05-29 14:40:00,77.9,66.4,30.19,East,97,2.0,12.0,68,0.00,CLR,,0.00,1051.0,WeatherDisplay:10.37,2013-05-29 18:40:00,
2013-05-29 14:45:00,77.6,65.3,30.19,SSE,159,4.6,4.6,66,0.00,CLR,,0.00,947.0,WeatherDisplay:10.37,2013-05-29 18:45:00,
2013-05-29 14:50:00,77.8,65.5,30.18,SSE,163,2.0,12.0,66,0.00,CLR,,0.00,949.0,WeatherDisplay:10.37,2013-05-29 18:50:00,
2013-05-29 14:55:00,77.8,66.0,30.18,ESE,113,8.1,8.1,67,0.00,CLR,,0.00,673.0,WeatherDisplay:10.37,2013-05-29 18:55:00,
2013-05-29 15:00:00,78.0,63.9,30.17,ESE,113,6.0,13.0,62,0.00,CLR,,0.00,925.0,WeatherDisplay:10.37,2013-05-29 19:00:00,
2013-05-29 15:05:00,78.0,63.9,30.17,ESE,102,8.1,8.1,62,0.00,CLR,,0.00,930.0,WeatherDisplay:10.37,2013-05-29 19:05:00,
2013-05-29 15:10:00,78.1,64.0,30.17,ESE,112,8.0,15.0,62,0.00,CLR,,0.00,928.0,WeatherDisplay:10.37,2013-05-29 19:10:00,
2013-05-29 15:15:00,78.2,62.7,30.17,ESE,109,10.4,10.4,59,0.00,CLR,,0.00,919.0,WeatherDisplay:10.37,2013-05-29 19:15:00,
2013-05-29 15:20:00,78.5,62.5,30.17,ENE,78,3.5,3.5,58,0.00,CLR,,0.00,911.0,WeatherDisplay:10.37,2013-05-29 19:20:00,
2013-05-29 15:25:00,78.5,62.5,30.17,SSE,155,3.5,3.5,58,0.00,CLR,,0.00,905.0,WeatherDisplay:10.37,2013-05-29 19:25:00,
2013-05-29 15:30:00,78.6,63.6,30.17,ESE,118,4.6,4.6,60,0.00,CLR,,0.00,896.0,WeatherDisplay:10.37,2013-05-29 19:30:00,
2013-05-29 15:35:00,78.8,64.7,30.17,ESE,111,3.5,3.5,62,0.00,CLR,,0.00,884.0,WeatherDisplay:10.37,2013-05-29 19:35:00,
2013-05-29 15:40:00,79.1,65.9,30.17,ESE,121,0.0,0.0,64,0.00,CLR,,0.00,884.0,WeatherDisplay:10.37,2013-05-29 19:40:00,
2013-05-29 15:45:00,79.2,63.6,30.17,SSE,148,5.8,5.8,59,0.00,CLR,,0.00,865.0,WeatherDisplay:10.37,2013-05-29 19:45:00,
2013-05-29 15:50:00,78.9,64.3,30.17,ESE,109,6.9,6.9,61,0.00,CLR,,0.00,851.0,WeatherDisplay:10.37,2013-05-29 19:50:00,
2013-05-29 15:55:00,78.8,63.7,30.17,East,88,5.8,5.8,60,0.00,CLR,,0.00,842.0,WeatherDisplay:10.37,2013-05-29 19:55:00,
2013-05-29 16:00:00,78.7,65.5,30.17,SSE,148,8.1,8.1,64,0.00,CLR,,0.00,831.0,WeatherDisplay:10.37,2013-05-29 20:00:00,
2013-05-29 16:05:00,78.9,63.8,30.16,SSW,196,10.4,10.4,60,0.00,SCT,,0.00,605.0,WeatherDisplay:10.37,2013-05-29 20:05:00,
2013-05-29 16:10:00,79.2,65.1,30.16,SE,140,10.4,10.4,62,0.00,CLR,,0.00,817.0,WeatherDisplay:10.37,2013-05-29 20:10:00,
2013-05-29 16:15:00,79.1,65.4,30.16,ESE,103,4.6,4.6,63,0.00,CLR,,0.00,817.0,WeatherDisplay:10.37,2013-05-29 20:15:00,
2013-05-29 16:20:00,79.2,64.6,30.16,SSE,158,10.0,10.0,61,0.00,FEW,,0.00,800.0,WeatherDisplay:10.37,2013-05-29 20:20:00,
2013-05-29 16:25:00,79.2,63.6,30.17,ESE,106,10.4,10.4,59,0.00,CLR,,0.00,830.0,WeatherDisplay:10.37,2013-05-29 20:25:00,
2013-05-29 16:30:00,79.3,64.2,30.16,SSE,148,10.4,10.4,60,0.00,FEW,,0.00,831.0,WeatherDisplay:10.37,2013-05-29 20:30:00,
2013-05-29 16:35:00,79.4,66.2,30.16,SE,146,5.8,5.8,64,0.00,FEW,,0.00,791.0,WeatherDisplay:10.37,2013-05-29 20:35:00,
2013-05-29 16:40:00,79.4,65.2,30.16,East,94,6.9,6.9,62,0.00,FEW,,0.00,773.0,WeatherDisplay:10.37,2013-05-29 20:40:00,
2013-05-29 16:45:00,79.6,66.3,30.16,East,101,6.9,6.9,64,0.00,SCT,,0.00,751.0,WeatherDisplay:10.37,2013-05-29 20:45:00,
2013-05-29 16:50:00,79.5,65.3,30.16,ENE,75,1.2,1.2,62,0.00,FEW,,0.00,786.0,WeatherDisplay:10.37,2013-05-29 20:50:00,
2013-05-29 16:55:00,79.5,65.3,30.16,SE,143,9.2,9.2,62,0.00,SCT,,0.00,578.0,WeatherDisplay:10.37,2013-05-29 20:55:00,
2013-05-29 17:00:00,79.3,65.1,30.16,SE,144,0.0,0.0,62,0.00,SCT,,0.00,578.0,WeatherDisplay:10.37,2013-05-29 21:00:00,
2013-05-29 17:05:00,79.4,65.7,30.16,SE,140,4.6,4.6,63,0.00,BKN,,0.00,227.0,WeatherDisplay:10.37,2013-05-29 21:05:00,
2013-05-29 17:10:00,79.0,65.3,30.16,ESE,118,5.8,5.8,63,0.00,BKN,,0.00,151.0,WeatherDisplay:10.37,2013-05-29 21:10:00,
2013-05-29 17:15:00,78.5,64.4,30.16,ESE,116,9.2,9.2,62,0.00,BKN,,0.00,111.0,WeatherDisplay:10.37,2013-05-29 21:15:00,
2013-05-29 17:20:00,78.0,65.3,30.16,ESE,121,4.6,4.6,65,0.00,BKN,,0.00,202.0,WeatherDisplay:10.37,2013-05-29 21:20:00,
2013-05-29 17:25:00,77.9,64.7,30.16,ESE,115,5.0,5.0,64,0.00,BKN,,0.00,374.0,WeatherDisplay:10.37,2013-05-29 21:25:00,
2013-05-29 17:30:00,78.1,66.2,30.16,ESE,105,9.2,9.2,67,0.00,SCT,,0.00,715.0,WeatherDisplay:10.37,2013-05-29 21:30:00,
2013-05-29 17:35:00,78.1,65.8,30.16,ESE,123,3.5,3.5,66,0.00,BKN,,0.00,232.0,WeatherDisplay:10.37,2013-05-29 21:35:00,
2013-05-29 17:40:00,77.8,65.1,30.16,ESE,116,6.9,6.9,65,0.00,BKN,,0.00,220.0,WeatherDisplay:10.37,2013-05-29 21:40:00,
2013-05-29 17:45:00,77.6,64.9,30.16,South,186,3.5,3.5,65,0.00,SCT,,0.00,638.0,WeatherDisplay:10.37,2013-05-29 21:45:00,
2013-05-29 17:50:00,77.6,66.2,30.15,SE,133,6.9,6.9,68,0.00,BKN,,0.00,387.0,WeatherDisplay:10.37,2013-05-29 21:50:00,
2013-05-29 17:55:00,78.1,67.5,30.15,ESE,113,1.2,0.0,70,0.00,BKN,,0.00,538.0,WeatherDisplay:10.37,2013-05-29 21:55:00,
2013-05-29 18:00:00,78.5,66.2,30.15,SE,141,5.8,5.8,66,0.00,BKN,,0.00,183.0,WeatherDisplay:10.37,2013-05-29 22:00:00,
2013-05-29 18:05:00,78.7,66.4,30.15,SE,136,5.8,5.8,66,0.00,BKN,,0.00,524.0,WeatherDisplay:10.37,2013-05-29 22:05:00,
2013-05-29 18:10:00,78.9,65.2,30.15,South,174,3.5,0.0,63,0.00,BKN,,0.00,499.0,WeatherDisplay:10.37,2013-05-29 22:10:00,
2013-05-29 18:15:00,78.9,65.7,30.15,SW,232,8.0,8.0,64,0.00,BKN,,0.00,438.0,WeatherDisplay:10.37,2013-05-29 22:15:00,
2013-05-29 18:20:00,78.5,64.4,30.15,SE,145,2.3,2.3,62,0.00,BKN,,0.00,302.0,WeatherDisplay:10.37,2013-05-29 22:20:00,
2013-05-29 18:25:00,78.2,64.6,30.15,East,96,10.4,10.4,63,0.00,BKN,,0.00,404.0,WeatherDisplay:10.37,2013-05-29 22:25:00,
2013-05-29 18:30:00,78.1,65.4,30.15,SE,128,3.0,3.0,65,0.00,BKN,,0.00,308.0,WeatherDisplay:10.37,2013-05-29 22:30:00,
2013-05-29 18:35:00,78.0,64.8,30.15,SE,131,0.0,0.6,64,0.00,BKN,,0.00,160.0,WeatherDisplay:10.37,2013-05-29 22:35:00,
2013-05-29 18:40:00,77.7,64.1,30.15,SSE,163,10.4,10.4,63,0.00,BKN,,0.00,151.0,WeatherDisplay:10.37,2013-05-29 22:40:00,
2013-05-29 18:45:00,77.3,64.6,30.15,SSE,168,0.0,0.0,65,0.00,BKN,,0.00,336.0,WeatherDisplay:10.37,2013-05-29 22:45:00,
2013-05-29 18:50:00,77.1,64.9,30.15,SE,135,6.9,6.9,66,0.00,BKN,,0.00,113.0,WeatherDisplay:10.37,2013-05-29 22:50:00,
2013-05-29 18:55:00,76.9,65.5,30.15,ESE,115,3.5,3.5,68,0.00,BKN,,0.00,297.0,WeatherDisplay:10.37,2013-05-29 22:55:00,
2013-05-29 19:00:00,77.0,65.6,30.15,ESE,117,3.5,3.5,68,0.00,BKN,,0.00,279.0,WeatherDisplay:10.37,2013-05-29 23:00:00,
2013-05-29 19:05:00,77.0,65.2,30.15,ESE,119,3.5,3.5,67,0.00,BKN,,0.00,260.0,WeatherDisplay:10.37,2013-05-29 23:05:00,
2013-05-29 19:10:00,77.1,65.7,30.15,ESE,119,3.5,0.0,68,0.00,BKN,,0.00,241.0,WeatherDisplay:10.37,2013-05-29 23:10:00,
2013-05-29 19:15:00,77.1,66.1,30.14,ESE,119,3.5,0.0,69,0.00,BKN,,0.00,230.0,WeatherDisplay:10.37,2013-05-29 23:15:00,
2013-05-29 19:20:00,77.1,65.3,30.14,SE,134,9.2,9.2,67,0.00,BKN,,0.00,216.0,WeatherDisplay:10.37,2013-05-29 23:20:00,
2013-05-29 19:25:00,77.0,64.8,30.14,ENE,76,4.6,4.6,66,0.00,BKN,,0.00,185.0,WeatherDisplay:10.37,2013-05-29 23:25:00,
2013-05-29 19:30:00,76.7,64.9,30.15,ESE,123,4.0,4.0,67,0.00,BKN,,0.00,149.0,WeatherDisplay:10.37,2013-05-29 23:30:00,
2013-05-29 19:35:00,76.6,65.7,30.15,ESE,117,4.6,4.6,69,0.00,BKN,,0.00,149.0,WeatherDisplay:10.37,2013-05-29 23:35:00,
2013-05-29 19:40:00,76.4,65.1,30.15,ESE,119,4.6,4.6,68,0.00,BKN,,0.00,144.0,WeatherDisplay:10.37,2013-05-29 23:40:00,
2013-05-29 19:45:00,76.3,65.4,30.15,ESE,119,0.0,0.0,69,0.00,BKN,,0.00,134.0,WeatherDisplay:10.37,2013-05-29 23:45:00,
2013-05-29 19:50:00,76.3,65.8,30.15,ESE,119,3.5,3.5,70,0.00,BKN,,0.00,121.0,WeatherDisplay:10.37,2013-05-29 23:50:00,
2013-05-29 19:55:00,76.3,65.8,30.15,ESE,119,0.0,0.0,70,0.00,BKN,,0.00,105.0,WeatherDisplay:10.37,2013-05-29 23:55:00,
2013-05-29 20:01:00,76.4,65.9,30.15,ESE,119,0.0,0.0,70,0.00,BKN,,0.00,91.0,WeatherDisplay:10.37,2013-05-30 00:01:00,
2013-05-29 20:06:00,76.3,66.2,30.15,ESE,119,0.0,0.0,71,0.00,BKN,,0.00,77.0,WeatherDisplay:10.37,2013-05-30 00:06:00,
2013-05-29 20:11:00,76.1,66.0,30.15,ESE,119,0.0,0.0,71,0.00,BKN,,0.00,63.0,WeatherDisplay:10.37,2013-05-30 00:11:00,
2013-05-29 20:16:00,75.8,65.7,30.15,ESE,119,0.0,0.1,71,0.00,CLR,,0.00,51.0,WeatherDisplay:10.37,2013-05-30 00:16:00,
2013-05-29 20:21:00,75.4,65.7,30.15,ESE,119,1.2,1.2,72,0.00,CLR,,0.00,33.0,WeatherDisplay:10.37,2013-05-30 00:21:00,
2013-05-29 20:26:00,74.8,65.6,30.15,ESE,119,0.0,0.0,73,0.00,CLR,,0.00,25.0,WeatherDisplay:10.37,2013-05-30 00:26:00,
2013-05-29 20:31:00,74.1,65.3,30.15,ESE,119,0.0,0.0,74,0.00,CLR,,0.00,12.0,WeatherDisplay:10.37,2013-05-30 00:31:00,
2013-05-29 20:36:00,73.4,65.4,30.15,ESE,119,0.0,0.0,76,0.00,CLR,,0.00,9.0,WeatherDisplay:10.37,2013-05-30 00:36:00,
2013-05-29 20:41:00,72.7,65.1,30.14,ESE,119,0.0,0.0,77,0.00,CLR,,0.00,5.0,WeatherDisplay:10.37,2013-05-30 00:41:00,
2013-05-29 20:46:00,72.0,65.1,30.14,ESE,119,0.0,0.0,79,0.00,CLR,,0.00,0.0,WeatherDisplay:10.37,2013-05-30 00:46:00,
2013-05-29 20:51:00,71.5,64.6,30.15,ESE,119,0.0,0.0,79,0.00,CLR,,0.00,0.0,WeatherDisplay:10.37,2013-05-30 00:51:00,
2013-05-29 20:56:00,71.0,64.9,30.15,ESE,119,0.0,0.0,81,0.00,CLR,,0.00,0.0,WeatherDisplay:10.37,2013-05-30 00:56:00,
2013-05-29 21:01:00,70.6,64.8,30.15,ESE,119,0.0,0.0,82,0.00,CLR,,0.00,0.0,WeatherDisplay:10.37,2013-05-30 01:01:00,
2013-05-29 21:06:00,70.1,64.3,30.15,ESE,119,0.0,0.0,82,0.00,CLR,,0.00,0.0,WeatherDisplay:10.37,2013-05-30 01:06:00,
2013-05-29 21:11:00,69.7,64.3,30.15,ESE,119,0.0,0.0,83,0.00,CLR,,0.00,0.0,WeatherDisplay:10.37,2013-05-30 01:11:00,
2013-05-29 21:16:00,69.4,64.4,30.15,ESE,119,0.0,0.0,84,0.00,CLR,,0.00,0.0,WeatherDisplay:10.37,2013-05-30 01:16:00,
2013-05-29 21:21:00,69.0,64.0,30.15,ESE,119,0.0,0.0,84,0.00,CLR,,0.00,0.0,WeatherDisplay:10.37,2013-05-30 01:21:00,
2013-05-29 21:26:00,68.7,64.0,30.15,ESE,119,2.3,2.3,85,0.00,CLR,,0.00,0.0,WeatherDisplay:10.37,2013-05-30 01:26:00,
2013-05-29 21:31:00,68.4,63.7,30.16,ESE,119,0.0,0.0,85,0.00,CLR,,0.00,0.0,WeatherDisplay:10.37,2013-05-30 01:31:00,
2013-05-29 21:36:00,68.2,63.5,30.15,ESE,119,2.3,2.3,85,0.00,CLR,,0.00,0.0,WeatherDisplay:10.37,2013-05-30 01:36:00,
2013-05-29 21:41:00,68.0,63.7,30.16,ESE,119,3.5,3.5,86,0.00,CLR,,0.00,0.0,WeatherDisplay:10.37,2013-05-30 01:41:00,
2013-05-29 21:46:00,67.9,63.6,30.16,ESE,119,0.0,0.0,86,0.00,CLR,,0.00,0.0,WeatherDisplay:10.37,2013-05-30 01:46:00,
2013-05-29 21:51:00,67.7,63.7,30.16,ESE,119,0.0,0.0,87,0.00,CLR,,0.00,0.0,WeatherDisplay:10.37,2013-05-30 01:51:00,
2013-05-29 21:56:00,67.5,63.5,30.16,ESE,119,0.0,0.0,87,0.00,CLR,,0.00,0.0,WeatherDisplay:10.37,2013-05-30 01:56:00,
2013-05-29 22:01:00,67.3,63.3,30.16,ESE,119,0.0,0.0,87,0.00,CLR,,0.00,0.0,WeatherDisplay:10.37,2013-05-30 02:01:00,
2013-05-29 22:06:00,67.2,63.2,30.16,ESE,117,4.6,4.6,87,0.00,CLR,,0.00,0.0,WeatherDisplay:10.37,2013-05-30 02:06:00,
2013-05-29 22:11:00,67.0,63.3,30.16,ESE,117,3.5,3.5,88,0.00,CLR,,0.00,0.0,WeatherDisplay:10.37,2013-05-30 02:11:00,
2013-05-29 22:16:00,66.8,63.1,30.17,ESE,115,0.0,0.0,88,0.00,CLR,,0.00,0.0,WeatherDisplay:10.37,2013-05-30 02:16:00,
2013-05-29 22:21:00,66.7,63.4,30.17,ESE,112,4.0,4.0,89,0.00,CLR,,0.00,0.0,WeatherDisplay:10.37,2013-05-30 02:21:00,
2013-05-29 22:26:00,66.6,63.3,30.17,ESE,112,3.5,3.5,89,0.00,CLR,,0.00,0.0,WeatherDisplay:10.37,2013-05-30 02:26:00,
2013-05-29 22:31:00,66.4,63.1,30.17,ESE,112,3.5,3.5,89,0.00,CLR,,0.00,0.0,WeatherDisplay:10.37,2013-05-30 02:31:00,
2013-05-29 22:36:00,66.3,63.0,30.17,ESE,112,4.0,4.0,89,0.00,CLR,,0.00,0.0,WeatherDisplay:10.37,2013-05-30 02:36:00,
2013-05-29 22:41:00,66.3,63.0,30.17,ESE,112,3.5,3.5,89,0.00,CLR,,0.00,0.0,WeatherDisplay:10.37,2013-05-30 02:41:00,
2013-05-29 22:46:00,66.2,63.2,30.17,ESE,112,3.5,3.5,90,0.00,CLR,,0.00,0.0,WeatherDisplay:10.37,2013-05-30 02:46:00,
2013-05-29 22:51:00,66.2,63.2,30.17,ESE,112,0.0,0.0,90,0.00,CLR,,0.00,0.0,WeatherDisplay:10.37,2013-05-30 02:51:00,
2013-05-29 22:56:00,66.1,63.1,30.17,ESE,111,3.5,3.5,90,0.00,CLR,,0.00,0.0,WeatherDisplay:10.37,2013-05-30 02:56:00,
2013-05-29 23:01:00,66.1,63.1,30.17,East,96,3.5,3.5,90,0.00,CLR,,0.00,0.0,WeatherDisplay:10.37,2013-05-30 03:01:00,
2013-05-29 23:06:00,66.1,62.8,30.17,East,95,0.0,0.0,89,0.00,CLR,,0.00,0.0,WeatherDisplay:10.37,2013-05-30 03:06:00,
2013-05-29 23:11:00,66.1,62.8,30.17,East,94,5.8,5.8,89,0.00,CLR,,0.00,0.0,WeatherDisplay:10.37,2013-05-30 03:11:00,
2013-05-29 23:16:00,66.0,63.0,30.17,East,92,3.5,3.5,90,0.00,CLR,,0.00,0.0,WeatherDisplay:10.37,2013-05-30 03:16:00,
2013-05-29 23:21:00,66.0,63.0,30.17,East,90,6.0,6.0,90,0.00,CLR,,0.00,0.0,WeatherDisplay:10.37,2013-05-30 03:21:00,
2013-05-29 23:26:00,65.9,62.6,30.17,East,90,4.6,4.6,89,0.00,CLR,,0.00,0.0,WeatherDisplay:10.37,2013-05-30 03:26:00,
2013-05-29 23:31:00,65.8,62.5,30.17,East,90,3.5,3.5,89,0.00,CLR,,0.00,0.0,WeatherDisplay:10.37,2013-05-30 03:31:00,
2013-05-29 23:36:00,65.8,62.8,30.17,East,90,4.0,4.0,90,0.00,CLR,,0.00,0.0,WeatherDisplay:10.37,2013-05-30 03:36:00,
2013-05-29 23:41:00,65.7,62.7,30.17,East,90,4.6,4.6,90,0.00,CLR,,0.00,0.0,WeatherDisplay:10.37,2013-05-30 03:41:00,
2013-05-29 23:46:00,65.6,62.6,30.17,East,88,5.8,5.8,90,0.00,CLR,,0.00,0.0,WeatherDisplay:10.37,2013-05-30 03:46:00,
2013-05-29 23:51:00,65.5,62.5,30.17,East,79,4.0,4.0,90,0.00,CLR,,0.00,0.0,WeatherDisplay:10.37,2013-05-30 03:51:00,
2013-05-29 23:56:00,65.4,62.4,30.17,ENE,78,3.5,3.5,90,0.00,CLR,,0.00,0.0,WeatherDisplay:10.37,2013-05-30 03:56:00,